Stations météo

réclame
Mon MeteoGroup
Nieuw Beerta aws, Pays-Bas (6286): Température de l'air & dewpoint: 14.08.2018 19:00:00 - 20.08.2018 19:00:00 (CEST)Nieuw Beerta aws, Pays-Bas (6286): Température de l'air 5cm & Température de l'air -5cm: 14.08.2018 19:00:00 - 20.08.2018 19:00:00 (CEST)Nieuw Beerta aws, Pays-Bas (6286): Température de l'air -20cm & Température de l'air -100cm: 14.08.2018 19:00:00 - 20.08.2018 19:00:00 (CEST)Nieuw Beerta aws, Pays-Bas (6286): Vitesse du vent & gusts: 14.08.2018 19:00:00 - 20.08.2018 19:00:00 (CEST)Nieuw Beerta aws, Pays-Bas (6286): Direction du vent: 14.08.2018 19:00:00 - 20.08.2018 19:00:00 (CEST)Nieuw Beerta aws, Pays-Bas (6286): Quantités de précipitations: 14.08.2018 19:00:00 - 20.08.2018 19:00:00 (CEST)
Date & Time tt [°C] td [°C] tt 5cm [°C] tt -5cm [°C] tt -20cm [°C] tt -100cm [°C] ff [km/h] ff [knt] fx [km/h] fx [knt] dd rr [mm]
20.08.2018 19:00:00 20,1 15,6 20,8 21,4 19,8 17,3 18 10 - - NNW -
20.08.2018 18:00:00 20,9 15,5 22,5 21,7 19,7 17,3 22 12 32 18 NNW 0,0
20.08.2018 17:00:00 21,3 15,6 22,7 21,6 19,6 17,3 18 10 29 16 NNW 0,0
20.08.2018 16:00:00 21,4 15,9 22,9 21,2 19,5 17,3 18 10 29 16 NNW 0,0
20.08.2018 15:00:00 21,7 16,2 23,3 20,6 19,4 17,3 18 10 25 14 NNW 0,0
20.08.2018 14:00:00 21,1 15,9 22,7 20,5 19,3 17,3 22 12 29 16 NNW 0,0
20.08.2018 13:00:00 19,8 17,9 21,2 20,1 19,2 17,3 11 6 22 12 WSW 0,0
20.08.2018 12:00:00 19,9 16,7 20,6 19,8 19,1 17,3 14 8 22 12 NNW 0,0
20.08.2018 11:00:00 19,7 16,7 20,7 19,5 19,1 17,3 14 8 25 14 W 0,0
20.08.2018 10:00:00 19,1 17,2 19,6 19,1 19,1 17,3 14 8 25 14 W 0,0
20.08.2018 09:00:00 18,6 16,6 18,9 18,9 19,1 17,3 14 8 25 14 W 0,0
20.08.2018 08:00:00 18,1 17,2 18,1 18,9 19,1 17,3 18 10 29 16 W 0,0
20.08.2018 07:00:00 18,6 17,8 18,5 18,9 19,1 17,3 18 10 22 12 W 0,0
20.08.2018 06:00:00 18,6 17,8 18,4 18,9 19,2 17,3 14 8 22 12 WSW 0,0
20.08.2018 05:00:00 18,5 17,8 18,4 18,9 19,2 17,3 11 6 25 14 WSW 0,0
20.08.2018 04:00:00 18,5 17,7 18,3 18,9 19,3 17,4 14 8 22 12 SW 0,0
20.08.2018 03:00:00 18,4 17,5 18,2 19,0 19,3 17,4 14 8 25 14 SW 0,0
20.08.2018 02:00:00 18,2 17,5 18,0 19,1 19,4 17,4 14 8 25 14 SW 0,0
20.08.2018 01:00:00 18,2 17,4 17,9 19,2 19,4 17,4 18 10 29 16 SW 0,4
20.08.2018 00:00:00 18,8 16,7 18,8 19,3 19,4 17,4 22 12 29 16 SW 0,0
19.08.2018 23:00:00 19,1 16,2 18,8 19,4 19,5 17,4 14 8 29 16 WSW 0,0
19.08.2018 22:00:00 19,5 16,0 19,4 19,6 19,5 17,4 22 12 32 18 WSW 0,0
19.08.2018 21:00:00 19,7 15,9 19,6 19,9 19,6 17,4 18 10 40 21 WSW 0,0
19.08.2018 20:00:00 20,0 16,0 20,1 20,2 19,5 17,4 25 14 40 21 W 0,0
19.08.2018 19:00:00 21,1 15,4 21,2 20,5 19,5 17,4 22 12 32 18 SW 0,0
19.08.2018 18:00:00 21,1 15,4 21,3 20,8 19,4 17,4 22 12 36 19 SW 0,0
19.08.2018 17:00:00 21,2 15,3 21,6 21,0 19,3 17,4 25 14 43 23 SW 0,0
19.08.2018 16:00:00 21,9 14,9 22,8 21,1 19,2 17,4 29 16 40 21 SSW 0,0
19.08.2018 15:00:00 21,9 14,1 23,1 21,0 19,0 17,4 25 14 36 19 SW 0,0
19.08.2018 14:00:00 21,4 13,8 22,7 20,6 18,8 17,4 25 14 32 18 SSW 0,0
19.08.2018 13:00:00 21,1 13,9 22,9 20,2 18,6 17,4 22 12 32 18 SW 0,0
19.08.2018 12:00:00 22,3 13,8 24,0 19,3 18,5 17,4 22 12 32 18 SSW 0,0
19.08.2018 11:00:00 20,8 12,7 22,5 18,6 18,4 17,4 18 10 32 18 SSW 0,0
19.08.2018 10:00:00 18,9 14,4 19,2 18,0 18,4 17,4 22 12 29 16 SSW 0,0
19.08.2018 09:00:00 18,3 14,8 18,6 17,7 18,4 17,4 18 10 29 16 SSW 0,0
19.08.2018 08:00:00 17,7 14,4 17,4 17,4 18,5 17,4 14 8 22 12 S 0,0
19.08.2018 07:00:00 16,4 14,2 16,0 17,2 18,6 17,4 11 6 14 8 SSW 0,0
19.08.2018 06:00:00 15,8 14,0 15,4 17,2 18,7 17,4 11 6 18 10 SSW 0,0
19.08.2018 05:00:00 15,0 13,6 14,5 17,2 18,8 17,4 14 8 18 10 SSW 0,0
19.08.2018 04:00:00 15,0 13,6 14,7 17,3 18,9 17,4 11 6 14 8 SSW 0,0
19.08.2018 03:00:00 14,5 13,1 13,7 17,4 19,0 17,4 11 6 14 8 S 0,0
19.08.2018 02:00:00 14,5 13,0 13,7 17,7 19,2 17,4 14 8 14 8 SSW 0,0
19.08.2018 01:00:00 14,4 12,8 13,0 18,0 19,3 17,4 11 6 14 8 SSW 0,0
19.08.2018 00:00:00 14,1 12,4 13,4 18,5 19,4 17,4 11 6 14 8 SSW 0,0
18.08.2018 23:00:00 15,4 12,7 14,3 18,9 19,5 17,4 11 6 14 8 SSW 0,0
18.08.2018 22:00:00 16,0 13,1 15,2 19,5 19,6 17,4 11 6 22 12 SW 0,0
18.08.2018 21:00:00 17,9 13,8 17,5 20,0 19,6 17,4 14 8 29 16 WSW 0,0
18.08.2018 20:00:00 20,0 14,2 20,0 20,5 19,6 17,4 18 10 32 18 WSW 0,0
18.08.2018 19:00:00 20,8 14,6 21,2 20,8 19,5 17,4 22 12 32 18 WSW 0,0
18.08.2018 18:00:00 21,0 14,9 21,9 21,0 19,4 17,4 22 12 40 21 WSW 0,0
18.08.2018 17:00:00 21,3 14,8 22,4 20,9 19,3 17,4 25 14 40 21 SW 0,0
18.08.2018 16:00:00 21,1 15,1 22,0 21,1 19,1 17,4 18 10 40 21 WSW 0,0
18.08.2018 15:00:00 21,9 14,6 22,6 20,9 18,8 17,4 25 14 43 23 SW 0,0
18.08.2018 14:00:00 21,7 13,9 22,3 20,6 18,6 17,4 22 12 43 23 SW 0,0
18.08.2018 13:00:00 21,9 13,0 22,2 19,9 18,4 17,4 25 14 40 21 WSW 0,0
18.08.2018 12:00:00 21,6 12,4 24,0 18,8 18,2 17,5 25 14 36 19 SSW 0,0
18.08.2018 11:00:00 20,2 14,1 21,8 17,7 18,1 17,5 25 14 32 18 SW 0,0
18.08.2018 10:00:00 18,8 14,8 19,9 16,8 18,2 17,5 22 12 32 18 SSW 0,0
18.08.2018 09:00:00 16,6 13,4 16,9 16,2 18,3 17,5 18 10 25 14 SSW 0,0
18.08.2018 08:00:00 14,2 11,7 13,8 15,9 18,4 17,5 14 8 22 12 S 0,0
18.08.2018 07:00:00 12,0 10,7 11,4 15,9 18,6 17,5 14 8 14 8 S 0,0
18.08.2018 06:00:00 11,0 10,0 10,0 16,0 18,8 17,5 11 6 14 8 S 0,0
18.08.2018 05:00:00 10,7 9,7 9,9 16,2 18,9 17,5 11 6 11 6 S 0,0
18.08.2018 04:00:00 10,4 9,6 9,6 16,5 19,1 17,5 7 4 11 6 S 0,0
18.08.2018 03:00:00 11,3 10,1 9,9 16,8 19,3 17,5 11 6 11 6 S 0,0
18.08.2018 02:00:00 11,4 10,6 10,2 17,2 19,5 17,5 7 4 11 6 SSW 0,0
18.08.2018 01:00:00 12,0 10,9 10,6 17,7 19,7 17,5 7 4 11 6 S 0,0
18.08.2018 00:00:00 12,5 11,7 10,6 18,2 19,9 17,5 7 4 7 4 SSW 0,0
17.08.2018 23:00:00 13,2 11,6 11,6 18,9 20,1 17,5 7 4 7 4 N 0,0
17.08.2018 22:00:00 14,8 12,4 12,8 19,6 20,2 17,5 0 0 4 2 N 0,0
17.08.2018 21:00:00 16,0 12,8 15,1 20,5 20,3 17,5 7 4 18 10 N 0,0
17.08.2018 20:00:00 19,1 12,6 19,3 21,2 20,3 17,5 14 8 25 14 N 0,0
17.08.2018 19:00:00 20,0 12,7 20,5 21,5 20,3 17,5 18 10 25 14 N 0,0
17.08.2018 18:00:00 19,5 12,4 19,8 22,1 20,2 17,5 18 10 25 14 N 0,0
17.08.2018 17:00:00 20,5 11,9 21,6 22,7 20,0 17,5 22 12 32 18 N 0,0
17.08.2018 16:00:00 21,3 13,3 21,7 22,7 19,8 17,5 22 12 29 16 N 0,0
17.08.2018 15:00:00 20,9 13,2 22,8 22,6 19,5 17,5 18 10 25 14 NNW 0,0
17.08.2018 14:00:00 20,5 13,1 22,0 21,9 19,3 17,5 11 6 18 10 WNW 0,0
17.08.2018 13:00:00 20,5 13,1 23,5 20,7 19,1 17,5 11 6 22 12 WNW 0,0
17.08.2018 12:00:00 19,0 15,1 20,0 19,5 19,0 17,5 11 6 14 8 WSW 0,0
17.08.2018 11:00:00 17,6 15,4 18,5 18,8 19,0 17,5 11 6 14 8 WSW 0,0
17.08.2018 10:00:00 16,7 15,1 17,2 18,4 19,0 17,5 11 6 14 8 WSW 0,0
17.08.2018 09:00:00 16,1 15,3 16,5 18,0 19,0 17,5 7 4 11 6 WSW 0,0
17.08.2018 08:00:00 15,2 14,9 15,3 17,8 19,1 17,5 7 4 11 6 S 0,0
17.08.2018 07:00:00 14,8 14,6 14,9 17,8 19,2 17,5 4 2 7 4 SSW 0,6
17.08.2018 06:00:00 14,8 14,7 14,8 17,8 19,3 17,5 4 2 11 6 WSW 0,9
17.08.2018 05:00:00 14,8 14,2 14,6 17,8 19,4 17,5 4 2 11 6 SSW 0,1
17.08.2018 04:00:00 14,0 13,5 13,8 17,8 19,5 17,5 4 2 11 6 SSW 0,0
17.08.2018 03:00:00 13,0 12,9 12,4 17,9 19,7 17,5 4 2 7 4 WSW 0,0
17.08.2018 02:00:00 12,3 12,1 11,8 18,2 19,9 17,5 4 2 7 4 SSW 0,0
17.08.2018 01:00:00 13,2 12,5 12,6 18,7 20,0 17,5 4 2 7 4 S 0,0
17.08.2018 00:00:00 14,4 13,7 13,5 19,2 20,2 17,5 7 4 11 6 S 0,0
16.08.2018 23:00:00 14,7 13,3 13,7 19,7 20,3 17,5 4 2 7 4 SSE 0,0
16.08.2018 22:00:00 15,4 14,5 14,5 20,4 20,4 17,5 7 4 22 12 WNW 0,0
16.08.2018 21:00:00 17,2 15,3 17,1 21,1 20,5 17,5 22 12 40 21 WNW 0,0
16.08.2018 20:00:00 20,6 14,6 20,4 21,8 20,4 17,5 18 10 29 16 WSW 0,0
16.08.2018 19:00:00 21,7 14,9 22,3 22,1 20,4 17,5 25 14 36 19 WSW 0,0
16.08.2018 18:00:00 21,9 15,5 22,7 22,5 20,2 17,5 25 14 36 19 W 0,0
16.08.2018 17:00:00 23,5 15,1 24,1 23,0 20,0 17,5 25 14 36 19 SW 0,0
16.08.2018 16:00:00 23,9 14,9 25,2 23,0 19,8 17,5 18 10 32 18 SSW 0,0
16.08.2018 15:00:00 23,4 15,1 25,1 22,4 19,5 17,5 25 14 40 21 SW 0,0
16.08.2018 14:00:00 22,9 15,0 25,0 21,5 19,3 17,5 25 14 47 25 WSW 0,0
16.08.2018 13:00:00 22,5 14,1 22,9 20,8 19,1 17,5 32 18 43 23 SW 0,0
16.08.2018 12:00:00 21,6 14,6 22,9 20,0 18,9 17,6 32 18 43 23 SW 0,0
16.08.2018 11:00:00 20,8 14,7 22,5 19,0 18,9 17,6 25 14 36 19 SSW 0,0
16.08.2018 10:00:00 20,0 15,3 20,9 18,2 18,9 17,6 22 12 36 19 SSW 0,0
16.08.2018 09:00:00 18,0 15,1 18,4 17,8 19,0 17,6 25 14 36 19 SSW 0,0
16.08.2018 08:00:00 16,8 14,7 16,8 17,6 19,1 17,6 25 14 29 16 S 0,0
16.08.2018 07:00:00 15,8 14,3 15,3 17,7 19,2 17,6 18 10 22 12 S 0,0
16.08.2018 06:00:00 15,7 14,3 15,2 17,9 19,3 17,6 14 8 22 12 S 0,0
16.08.2018 05:00:00 16,0 14,6 15,5 18,0 19,4 17,6 14 8 22 12 S 0,0
16.08.2018 04:00:00 16,4 14,9 15,9 18,2 19,5 17,6 14 8 22 12 S 0,0
16.08.2018 03:00:00 16,4 14,8 15,7 18,3 19,6 17,6 14 8 18 10 S 0,0
16.08.2018 02:00:00 15,7 14,5 15,1 18,6 19,8 17,6 11 6 14 8 S 0,0
16.08.2018 01:00:00 16,3 15,0 15,7 18,9 19,9 17,6 11 6 14 8 S 0,0
16.08.2018 00:00:00 16,9 15,2 16,0 19,3 20,0 17,6 11 6 11 6 S 0,0
15.08.2018 23:00:00 17,7 15,8 16,8 19,8 20,1 17,6 11 6 14 8 SSW 0,0
15.08.2018 22:00:00 18,6 16,6 18,0 20,2 20,1 17,6 11 6 14 8 WSW 0,0
15.08.2018 21:00:00 19,7 16,6 19,5 20,7 20,1 17,6 11 6 25 14 SSW 0,0
15.08.2018 20:00:00 21,3 16,6 21,4 21,1 20,1 17,6 14 8 25 14 SSW 0,0
15.08.2018 19:00:00 21,5 16,6 21,9 21,3 20,1 17,6 22 12 32 18 SW 0,0
15.08.2018 18:00:00 22,3 17,3 22,6 21,3 20,0 17,6 18 10 29 16 SW 0,0
15.08.2018 17:00:00 22,3 16,8 22,4 21,6 19,9 17,6 22 12 29 16 SW 0,0
15.08.2018 16:00:00 23,4 16,2 24,0 21,6 19,8 17,6 18 10 29 16 SSW 0,0
15.08.2018 15:00:00 23,0 16,4 23,8 21,6 19,6 17,6 22 12 29 16 SW 0,0
15.08.2018 14:00:00 22,6 16,5 23,2 21,6 19,4 17,6 18 10 29 16 SW 0,0
15.08.2018 13:00:00 22,6 16,7 23,6 21,5 19,2 17,6 14 8 29 16 SW 0,0
15.08.2018 12:00:00 22,6 17,4 24,5 20,5 19,0 17,6 18 10 29 16 SSW 0,0
15.08.2018 11:00:00 21,2 17,4 23,3 19,2 18,9 17,6 18 10 29 16 SW 0,0
15.08.2018 10:00:00 19,3 16,8 19,8 18,4 18,9 17,6 18 10 25 14 SSW 0,0
15.08.2018 09:00:00 17,6 15,8 17,5 18,0 19,0 17,6 14 8 18 10 SSW 0,0
15.08.2018 08:00:00 16,9 15,7 16,8 18,0 19,0 17,6 14 8 18 10 SSW 0,0
15.08.2018 07:00:00 16,5 15,6 16,4 17,9 19,1 17,6 14 8 18 10 SSW 0,0
15.08.2018 06:00:00 16,2 15,4 16,1 17,9 19,2 17,6 11 6 14 8 SSW 0,0
15.08.2018 05:00:00 15,7 15,0 15,4 18,0 19,2 17,7 11 6 18 10 SSW 0,0
15.08.2018 04:00:00 16,3 15,3 15,9 18,1 19,3 17,7 11 6 14 8 SW 0,0
15.08.2018 03:00:00 15,8 14,8 15,6 18,2 19,4 17,7 11 6 14 8 SW 0,0
15.08.2018 02:00:00 16,0 14,2 15,8 18,3 19,5 17,7 11 6 18 10 SSW 0,0
15.08.2018 01:00:00 15,9 14,0 15,7 18,4 19,6 17,7 11 6 14 8 SSW 0,0
15.08.2018 00:00:00 16,0 14,3 15,6 18,6 19,8 17,7 7 4 11 6 SW 0,0
14.08.2018 23:00:00 15,2 13,9 14,0 18,8 19,9 17,7 11 6 14 8 WSW 0,0
14.08.2018 22:00:00 15,3 13,7 14,5 19,4 20,0 17,7 11 6 14 8 W 0,0
14.08.2018 21:00:00 16,5 14,0 16,2 20,0 20,1 17,7 11 6 22 12 W 0,0
14.08.2018 20:00:00 18,5 13,9 18,5 20,5 20,1 17,7 18 10 36 19 WNW 0,0
14.08.2018 19:00:00 19,7 14,3 20,1 20,8 20,1 17,7 29 16 40 21 W 0,0

tt = Température de l'air
td = dewpoint
tt 5cm = Température de l'air 5cm
tt -5cm = Température de l'air -5cm
tt -20cm = Température de l'air -20cm
tt -100cm = Température de l'air -100cm
ff = Vitesse du vent
fx = gusts
dd = Direction du vent
rr = Quantités de précipitations

stations d'obs. à proximité